CheckWX is a tool to help pilots better visualize weather data.  It is not intended as a substitute for an official pre-flight weather briefing.

02:00:25 UTC

MYNN TAF
Lynden Pindling International Airport
Nassau, Bahamas
MYNN 232140Z 2400/2424 17018KT 9999 SCT024

Feb-24@
00:00 UTC

Feb-24 @ 00:00 UTC

Feb-25@
00:00 UTC

Feb-25 @ 00:00 UTC

MYNN 232140Z 2400/2424 17018KT 9999 SCT024
Wind
  • 170° at 18 KTS
Cloud Levels
  • Scattered at 2,400' AGL